Pocahontas, Mississippi
Current Conditions -  °F | °C
As of 6:53 PM on Monday 24 Nov 2014 (Local Time) from KHKS Reporting Station
Clear Clear  
Wind Chill: 50°   Ceiling: Unl
Heat Index: 50°   Visibility: 10mi
Dew Point: 34°   Wind: 5mph
Humidity: 54%   Direction: 320°NW
Pressure: 30.04"   Gusts: NA
Location:  32.47°N, 90.29°W
Report Text: KHKS 250053Z 32004KT 10SM CLR 10/01 A3004 RMK AO2 SLP166 T01000011
Loading
Personal Weather Stations






























Interactive Weather Map New forecast layout! Learn more

10-Day Weather Forecast

Advertisements
Track Severe Weather on mobile